Kissimmee Gateway Airport
KISM : now visible

Airfield :











YOU CAN JOIN US ON...

 
LOGIN :

Register | Disclaimer

   EN    FR    IT 

 









Legend :    VFR   Marginal VFR   IFR   Intensive IFR   Very Intensive IFR
Visi :
Ceiling :
>= 8 km
>= 3000ft
5 to 8 km
1000 to 3000 ft
1500m to 5 km
500 to 1000 ft
800 to 1500m
200 to 500 ft
< 800m
< 200 ft
Symbols :   Thunderstorms  Fog  Heavy snow  Heavy precipitations  Wind > 20 kt






- Airport Elevation : 82 ft


KISM - Kissimmee Gateway

CURRENT METAR :
  • 061756Z 36009KT 10SM CLR 23/11 A3018 RMK AO2 SLP221 6//// T02280111 10228 20139 58010 PNO $

EXPIRED METARs :
  • 061656Z VRB06KT 10SM CLR 22/11 A3021 RMK AO2 SLP232 T02170111 PNO $
  • 061556Z 36009KT 10SM CLR 21/11 A3022 RMK AO2 SLP235 T02110106 PNO $

TAF KISM
Valid from the 06 at 18:00 until the 07 at 18:00 UTC


061738Z 0618/0718 35010KT P6SM SKC
FM062200 05009KT P6SM SKC
FM070300 03004KT P6SM SKC
FM071500 10010KT P6SM SKC
KZMA FIR / North America



MET'MAP, your aeronautical weather chart ! - Copyright ORBIFLY December 2007 - Disclaimer

ORBIFLY MET'MAP TEAM :

Programming & Development : Alexandra Zaïnal
Original concept : Baudouin d'Aumeries
Technical & hardware support : Manuel Goepfert
Assistance : Marc-Olivier Méhu




SOURCES & CREDITS :

   NOAA       Earth
Advisory